createdAt,value
2018-12-21T00:01:07.700Z,5.60
2018-12-21T00:03:36.060Z,5.80
2018-12-21T00:06:04.521Z,5.80
2018-12-21T00:08:32.951Z,5.70
2018-12-21T00:11:01.309Z,5.70
2018-12-21T00:13:29.736Z,5.70
2018-12-21T00:15:58.093Z,5.70
2018-12-21T00:18:26.490Z,5.60
2018-12-21T00:20:55.207Z,5.60
2018-12-21T00:23:23.578Z,5.60
2018-12-21T00:25:51.969Z,5.70
2018-12-21T00:28:20.431Z,5.70
2018-12-21T00:30:48.160Z,5.70
2018-12-21T00:33:22.011Z,5.70
2018-12-21T00:35:55.624Z,5.70
2018-12-21T00:38:29.451Z,5.80
2018-12-21T00:41:04.204Z,5.80
2018-12-21T00:43:37.019Z,5.70
2018-12-21T00:46:10.887Z,5.70
2018-12-21T00:48:39.240Z,5.70
2018-12-21T00:51:07.655Z,5.60
2018-12-21T00:53:36.000Z,5.60
2018-12-21T00:56:04.491Z,5.60
2018-12-21T00:58:32.909Z,5.60
2018-12-21T01:01:01.268Z,5.70
2018-12-21T01:03:29.622Z,5.70
2018-12-21T01:05:58.004Z,5.70
2018-12-21T01:08:26.396Z,5.70
2018-12-21T01:10:54.779Z,5.80
2018-12-21T01:13:23.177Z,5.80
2018-12-21T01:15:51.540Z,5.80
2018-12-21T01:18:20.021Z,5.80
2018-12-21T01:20:49.433Z,5.80
2018-12-21T01:23:17.807Z,5.90
2018-12-21T01:25:46.136Z,5.90
2018-12-21T01:28:14.477Z,6.00
2018-12-21T01:30:42.898Z,6.00
2018-12-21T01:33:11.314Z,6.10
2018-12-21T01:35:39.695Z,6.10
2018-12-21T01:38:08.111Z,6.10
2018-12-21T01:40:36.501Z,6.20
2018-12-21T01:43:04.836Z,6.20
2018-12-21T01:45:33.199Z,6.30
2018-12-21T01:48:01.553Z,6.40
2018-12-21T01:50:29.932Z,6.50
2018-12-21T01:52:58.353Z,6.50
2018-12-21T01:55:26.728Z,6.50
2018-12-21T01:57:55.104Z,6.50
2018-12-21T02:00:23.458Z,6.50
2018-12-21T02:02:51.791Z,6.50
2018-12-21T02:05:20.176Z,6.50
2018-12-21T02:07:49.794Z,6.50
2018-12-21T02:10:18.375Z,6.60
2018-12-21T02:12:46.755Z,6.60
2018-12-21T02:15:15.099Z,6.70
2018-12-21T02:17:43.588Z,6.70
2018-12-21T02:20:12.064Z,6.70
2018-12-21T02:22:40.423Z,6.70
2018-12-21T02:25:08.761Z,6.80
2018-12-21T02:27:37.232Z,6.80
2018-12-21T02:30:06.800Z,6.70
2018-12-21T02:32:35.134Z,6.70
2018-12-21T02:35:03.597Z,6.70
2018-12-21T02:37:31.909Z,6.70
2018-12-21T02:40:00.267Z,6.80
2018-12-21T02:42:28.623Z,6.60
2018-12-21T02:44:57.543Z,6.60
2018-12-21T02:47:26.085Z,6.60
2018-12-21T02:49:55.275Z,6.60
2018-12-21T02:52:23.612Z,6.60
2018-12-21T02:54:52.000Z,6.60
2018-12-21T02:57:20.320Z,6.60
2018-12-21T02:59:48.731Z,6.70
2018-12-21T03:02:17.247Z,6.70
2018-12-21T03:04:45.576Z,6.70
2018-12-21T03:07:14.164Z,6.70
2018-12-21T03:09:42.663Z,6.70
2018-12-21T03:12:11.076Z,6.70
2018-12-21T03:14:39.415Z,6.70
2018-12-21T03:17:07.785Z,6.70
2018-12-21T03:19:36.118Z,6.70
2018-12-21T03:22:04.920Z,6.70
2018-12-21T03:24:33.279Z,6.60
2018-12-21T03:27:01.741Z,6.60
2018-12-21T03:29:30.100Z,6.50
2018-12-21T03:31:58.452Z,6.50
2018-12-21T03:34:26.791Z,6.40
2018-12-21T03:36:55.290Z,6.40
2018-12-21T03:39:24.538Z,6.40
2018-12-21T03:41:52.932Z,6.40
2018-12-21T03:44:21.273Z,6.40
2018-12-21T03:46:49.647Z,6.30
2018-12-21T03:49:18.057Z,6.30
2018-12-21T03:51:46.401Z,6.30
2018-12-21T03:54:15.296Z,6.40
2018-12-21T03:56:43.652Z,6.30
2018-12-21T03:59:12.269Z,6.30
2018-12-21T04:01:40.619Z,6.30
2018-12-21T04:04:08.940Z,6.30
2018-12-21T04:06:37.984Z,6.30
2018-12-21T04:09:07.581Z,6.30
2018-12-21T04:11:36.072Z,6.40
2018-12-21T04:14:05.035Z,6.40
2018-12-21T04:16:33.410Z,6.50
2018-12-21T04:19:03.347Z,6.50
2018-12-21T04:21:32.315Z,6.40
2018-12-21T04:24:00.660Z,6.40
2018-12-21T04:26:29.079Z,6.40
2018-12-21T04:28:57.640Z,6.40
2018-12-21T04:31:25.955Z,6.40
2018-12-21T04:33:54.327Z,6.40
2018-12-21T04:36:23.806Z,6.40
2018-12-21T04:38:52.813Z,6.40
2018-12-21T04:41:21.159Z,6.50
2018-12-21T04:43:49.649Z,6.50
2018-12-21T04:46:18.064Z,6.50
2018-12-21T04:48:46.400Z,6.60
2018-12-21T04:51:14.735Z,6.60
2018-12-21T04:53:43.090Z,6.60
2018-12-21T04:56:11.473Z,6.70
2018-12-21T04:58:39.812Z,6.70
2018-12-21T05:01:08.282Z,6.80
2018-12-21T05:03:36.981Z,6.80
2018-12-21T05:06:05.425Z,6.80
2018-12-21T05:08:34.461Z,6.90
2018-12-21T05:11:02.824Z,7.00
2018-12-21T05:13:31.169Z,7.00
2018-12-21T05:15:59.525Z,7.00
2018-12-21T05:18:27.876Z,7.00
2018-12-21T05:20:56.209Z,7.20
2018-12-21T05:23:24.559Z,7.20
2018-12-21T05:25:53.236Z,7.20
2018-12-21T05:28:21.604Z,7.30
2018-12-21T05:30:50.005Z,7.30
2018-12-21T05:33:18.350Z,7.30
2018-12-21T05:35:46.697Z,7.40
2018-12-21T05:38:15.102Z,7.50
2018-12-21T05:40:43.420Z,7.50
2018-12-21T05:43:11.765Z,7.50
2018-12-21T05:45:40.124Z,7.50
2018-12-21T05:48:08.525Z,7.50
2018-12-21T05:50:36.920Z,7.50
2018-12-21T05:53:05.248Z,7.50
2018-12-21T05:55:33.591Z,7.50
2018-12-21T05:58:01.963Z,7.60
2018-12-21T06:00:30.426Z,7.50
2018-12-21T06:02:58.952Z,7.60
2018-12-21T06:05:27.292Z,7.60
2018-12-21T06:07:56.585Z,7.60
2018-12-21T06:10:25.131Z,7.60
2018-12-21T06:12:54.732Z,7.60
2018-12-21T06:15:23.253Z,7.60
2018-12-21T06:17:51.642Z,7.60
2018-12-21T06:20:20.190Z,7.60
2018-12-21T06:22:48.719Z,7.60
2018-12-21T06:25:17.167Z,7.60
2018-12-21T06:27:45.525Z,7.60
2018-12-21T06:30:13.958Z,7.70
2018-12-21T06:32:42.340Z,7.60
2018-12-21T06:35:10.822Z,7.60
2018-12-21T06:37:39.376Z,7.60
2018-12-21T06:40:07.888Z,7.60
2018-12-21T06:42:36.987Z,7.60
2018-12-21T06:45:05.826Z,7.70
2018-12-21T06:47:34.154Z,7.70
2018-12-21T06:50:02.884Z,7.70
2018-12-21T06:52:31.244Z,7.70
2018-12-21T06:54:59.639Z,7.70
2018-12-21T06:57:28.027Z,7.80
2018-12-21T06:59:57.196Z,7.80
2018-12-21T07:02:25.548Z,7.90
2018-12-21T07:04:55.595Z,8.00
2018-12-21T07:07:23.970Z,8.00
2018-12-21T07:09:53.130Z,8.00
2018-12-21T07:12:21.709Z,8.10
2018-12-21T07:14:50.058Z,8.10
2018-12-21T07:17:18.405Z,8.10
2018-12-21T07:19:46.776Z,8.20
2018-12-21T07:22:15.274Z,8.10
2018-12-21T07:24:43.767Z,8.10
2018-12-21T07:27:12.092Z,8.10
2018-12-21T07:29:40.450Z,8.10
2018-12-21T07:32:08.845Z,8.10
2018-12-21T07:34:37.947Z,8.10
2018-12-21T07:37:06.329Z,8.10
2018-12-21T07:39:34.740Z,8.00
2018-12-21T07:42:03.112Z,8.00
2018-12-21T07:44:31.481Z,8.10
2018-12-21T07:46:59.836Z,8.10
2018-12-21T07:49:28.223Z,8.10
2018-12-21T07:51:57.537Z,8.10
2018-12-21T07:54:26.006Z,8.10
2018-12-21T07:56:54.389Z,8.10
2018-12-21T07:59:23.208Z,8.10
2018-12-21T08:01:51.672Z,8.10
2018-12-21T08:04:20.087Z,8.20
2018-12-21T08:06:48.440Z,8.20
2018-12-21T08:09:17.534Z,8.20
2018-12-21T08:11:45.916Z,8.10
2018-12-21T08:14:14.263Z,8.10
2018-12-21T08:16:42.648Z,8.10
2018-12-21T08:19:11.019Z,8.20
2018-12-21T08:21:39.365Z,8.20
2018-12-21T08:24:07.831Z,8.30
2018-12-21T08:26:36.371Z,8.20
2018-12-21T08:29:04.815Z,8.20
2018-12-21T08:31:33.232Z,8.30
2018-12-21T08:34:01.599Z,8.30
2018-12-21T08:36:29.941Z,8.30
2018-12-21T08:38:59.491Z,8.40
2018-12-21T08:41:27.913Z,8.40
2018-12-21T08:43:56.945Z,8.30
2018-12-21T08:46:25.525Z,8.30
2018-12-21T08:48:53.924Z,8.30
2018-12-21T08:51:22.316Z,8.30
2018-12-21T08:53:52.648Z,8.40
2018-12-21T08:56:21.175Z,8.40
2018-12-21T08:58:49.578Z,8.30
2018-12-21T09:01:17.938Z,8.30
2018-12-21T09:03:46.536Z,8.30
2018-12-21T09:06:18.575Z,8.30
2018-12-21T09:08:45.421Z,8.30
2018-12-21T09:11:13.793Z,8.40
2018-12-21T09:13:42.270Z,8.40
2018-12-21T09:16:10.661Z,8.30
2018-12-21T09:18:39.050Z,8.40
2018-12-21T09:21:07.393Z,8.40
2018-12-21T09:23:35.801Z,8.40
2018-12-21T09:26:04.160Z,8.40
2018-12-21T09:28:32.539Z,8.40
2018-12-21T09:31:00.882Z,8.40
2018-12-21T09:33:29.363Z,8.40
2018-12-21T09:35:58.137Z,8.50
2018-12-21T09:38:26.588Z,8.40
2018-12-21T09:40:55.087Z,8.50
2018-12-21T09:43:23.703Z,8.60
2018-12-21T09:45:52.136Z,8.60
2018-12-21T09:48:20.512Z,8.60
2018-12-21T09:50:48.897Z,8.60
2018-12-21T09:53:17.349Z,8.70
2018-12-21T09:55:45.863Z,8.70
2018-12-21T09:58:14.289Z,8.70
2018-12-21T10:00:42.675Z,8.70
2018-12-21T10:03:11.096Z,8.80
2018-12-21T10:05:39.480Z,8.90
2018-12-21T10:08:07.850Z,8.90
2018-12-21T10:10:36.237Z,8.90
2018-12-21T10:13:05.133Z,9.00
2018-12-21T10:15:33.673Z,9.00
2018-12-21T10:18:02.132Z,9.00
2018-12-21T10:20:30.517Z,9.10
2018-12-21T10:23:00.662Z,9.10
2018-12-21T10:25:29.012Z,9.10
2018-12-21T10:27:57.432Z,9.10
2018-12-21T10:30:25.850Z,9.20
2018-12-21T10:32:54.303Z,9.30
2018-12-21T10:35:22.815Z,9.30
2018-12-21T10:37:51.187Z,9.30
2018-12-21T10:40:19.734Z,9.30
2018-12-21T10:42:48.256Z,9.40
2018-12-21T10:45:16.697Z,9.50
2018-12-21T10:47:45.281Z,9.50
2018-12-21T10:50:13.737Z,9.50
2018-12-21T10:52:42.149Z,9.50
2018-12-21T10:55:10.655Z,9.70
2018-12-21T10:57:39.159Z,9.70
2018-12-21T11:00:10.657Z,9.70
2018-12-21T11:02:39.159Z,9.70
2018-12-21T11:05:08.125Z,9.80
2018-12-21T11:07:36.679Z,9.70
2018-12-21T11:10:07.515Z,9.80
2018-12-21T11:12:35.930Z,9.80
2018-12-21T11:15:04.608Z,9.80
2018-12-21T11:17:33.113Z,9.80
2018-12-21T11:20:02.610Z,9.80
2018-12-21T11:22:31.036Z,9.90
2018-12-21T11:24:59.529Z,9.90
2018-12-21T11:27:27.861Z,10.00
2018-12-21T11:29:56.444Z,10.00
2018-12-21T11:32:24.849Z,10.00
2018-12-21T11:34:54.896Z,9.90
2018-12-21T11:37:23.696Z,9.90
2018-12-21T11:39:52.786Z,10.00
2018-12-21T11:42:21.140Z,10.00
2018-12-21T11:44:49.657Z,10.00
2018-12-21T11:47:18.052Z,10.10
2018-12-21T11:49:46.708Z,10.20
2018-12-21T11:52:15.072Z,10.20
2018-12-21T11:54:48.985Z,10.10
2018-12-21T11:57:15.019Z,10.10
2018-12-21T11:59:44.948Z,10.20
2018-12-21T12:02:19.422Z,10.10
2018-12-21T12:04:44.224Z,10.10
2018-12-21T12:07:13.093Z,10.10
2018-12-21T12:09:41.572Z,10.10
2018-12-21T12:12:09.930Z,10.10
2018-12-21T12:14:38.479Z,10.10
2018-12-21T12:17:06.896Z,10.20
2018-12-21T12:19:35.362Z,10.20
2018-12-21T12:22:04.669Z,10.20
2018-12-21T12:24:33.013Z,10.20
2018-12-21T12:27:01.488Z,10.30
2018-12-21T12:29:29.848Z,10.20
2018-12-21T12:31:58.225Z,10.20
2018-12-21T12:34:26.778Z,10.20
2018-12-21T12:36:55.367Z,10.20
2018-12-21T12:39:24.412Z,10.20
2018-12-21T12:41:52.876Z,10.20
2018-12-21T12:44:21.856Z,10.20
2018-12-21T12:46:51.133Z,10.20
2018-12-21T12:49:19.532Z,10.20
2018-12-21T12:51:47.946Z,10.20
2018-12-21T12:54:16.305Z,10.20
2018-12-21T12:56:44.712Z,10.20
2018-12-21T12:59:13.607Z,10.30
2018-12-21T13:01:42.290Z,10.30
2018-12-21T13:04:10.964Z,10.30
2018-12-21T13:06:39.340Z,10.30
2018-12-21T13:09:08.351Z,10.30
2018-12-21T13:11:37.271Z,10.30
2018-12-21T13:14:05.731Z,10.20
2018-12-21T13:16:34.335Z,10.30
2018-12-21T13:19:02.705Z,10.30
2018-12-21T13:21:31.756Z,10.20
2018-12-21T13:24:01.431Z,10.30
2018-12-21T13:26:29.984Z,10.30
2018-12-21T13:28:58.385Z,10.30
2018-12-21T13:31:27.545Z,10.30
2018-12-21T13:33:56.160Z,10.30
2018-12-21T13:36:24.589Z,10.30
2018-12-21T13:38:53.023Z,10.20
2018-12-21T13:41:21.437Z,10.30
2018-12-21T13:43:49.826Z,10.40
2018-12-21T13:46:18.252Z,10.40
2018-12-21T13:48:46.756Z,10.30
2018-12-21T13:51:15.124Z,10.30
2018-12-21T13:53:43.536Z,10.30
2018-12-21T13:56:11.927Z,10.40
2018-12-21T13:58:40.326Z,10.40
2018-12-21T14:01:08.691Z,10.40
2018-12-21T14:03:37.096Z,10.40
2018-12-21T14:06:05.688Z,10.30
2018-12-21T14:08:34.100Z,10.30
2018-12-21T14:11:03.742Z,10.30
2018-12-21T14:13:32.157Z,10.30
2018-12-21T14:16:00.549Z,10.40
2018-12-21T14:18:29.064Z,10.40
2018-12-21T14:20:57.503Z,10.50
2018-12-21T14:23:25.948Z,10.40
2018-12-21T14:25:55.082Z,10.40
2018-12-21T14:28:24.162Z,10.40
2018-12-21T14:30:52.717Z,10.40
2018-12-21T14:33:21.195Z,10.40
2018-12-21T14:35:49.636Z,10.40
2018-12-21T14:38:18.160Z,10.30
2018-12-21T14:40:46.851Z,10.40
2018-12-21T14:43:15.299Z,10.30
2018-12-21T14:45:43.904Z,10.30
2018-12-21T14:48:12.399Z,10.30
2018-12-21T14:50:40.833Z,10.40
2018-12-21T14:53:09.303Z,10.40
2018-12-21T14:55:37.874Z,10.50
2018-12-21T14:58:07.610Z,10.50
2018-12-21T15:00:36.157Z,10.40
2018-12-21T15:03:06.467Z,10.40
2018-12-21T15:05:34.922Z,10.40
2018-12-21T15:08:04.063Z,10.40
2018-12-21T15:10:32.665Z,10.50
2018-12-21T15:13:01.557Z,10.40
2018-12-21T15:15:30.511Z,10.50
2018-12-21T15:17:59.172Z,10.50
2018-12-21T15:20:27.570Z,10.60
2018-12-21T15:22:55.951Z,10.60
2018-12-21T15:25:24.468Z,10.60
2018-12-21T15:27:52.829Z,10.60
2018-12-21T15:30:21.278Z,10.60
2018-12-21T15:32:49.748Z,10.60
2018-12-21T15:35:18.293Z,10.60
2018-12-21T15:37:46.675Z,10.60
2018-12-21T15:40:15.674Z,10.60
2018-12-21T15:42:44.140Z,10.60
2018-12-21T15:45:12.889Z,10.60
2018-12-21T15:47:41.310Z,10.60
2018-12-21T15:50:11.801Z,10.60
2018-12-21T15:52:41.401Z,10.70
2018-12-21T15:55:11.223Z,10.70
2018-12-21T15:57:39.761Z,10.60
2018-12-21T16:00:12.296Z,10.70
2018-12-21T16:02:42.790Z,10.70
2018-12-21T16:05:11.940Z,10.70
2018-12-21T16:07:40.435Z,10.70
2018-12-21T16:10:10.181Z,10.70
2018-12-21T16:12:38.763Z,10.70
2018-12-21T16:15:08.372Z,10.70
2018-12-21T16:17:36.986Z,10.80
2018-12-21T16:20:09.080Z,10.70
2018-12-21T16:22:42.382Z,10.70
2018-12-21T16:25:08.967Z,10.80
2018-12-21T16:27:37.520Z,10.80
2018-12-21T16:30:08.826Z,10.80
2018-12-21T16:32:37.879Z,10.80
2018-12-21T16:35:06.668Z,10.70
2018-12-21T16:37:35.167Z,10.80
2018-12-21T16:40:04.143Z,10.80
2018-12-21T16:42:32.634Z,10.90
2018-12-21T16:45:01.121Z,10.90
2018-12-21T16:47:29.536Z,10.90
2018-12-21T16:49:57.925Z,10.90
2018-12-21T16:52:26.421Z,11.00
2018-12-21T16:54:54.861Z,10.90
2018-12-21T16:57:23.769Z,11.00
2018-12-21T16:59:52.205Z,11.00
2018-12-21T17:02:20.704Z,11.10
2018-12-21T17:04:49.147Z,11.10
2018-12-21T17:07:17.580Z,11.00
2018-12-21T17:09:45.980Z,11.10
2018-12-21T17:12:14.412Z,11.10
2018-12-21T17:14:43.974Z,11.00
2018-12-21T17:17:12.406Z,11.20
2018-12-21T17:19:40.873Z,11.20
2018-12-21T17:22:09.355Z,11.20
2018-12-21T17:24:37.729Z,11.10
2018-12-21T17:27:06.363Z,11.20
2018-12-21T17:29:34.870Z,11.20
2018-12-21T17:32:03.383Z,11.20
2018-12-21T17:34:31.852Z,11.30
2018-12-21T17:37:00.408Z,11.30
2018-12-21T17:39:28.884Z,11.30
2018-12-21T17:41:57.766Z,11.30
2018-12-21T17:44:26.182Z,11.30
2018-12-21T17:46:54.572Z,11.40
2018-12-21T17:49:24.152Z,11.50
2018-12-21T17:52:01.210Z,11.70
2018-12-21T17:54:23.424Z,11.70
2018-12-21T17:56:51.860Z,11.70
2018-12-21T17:59:20.400Z,11.70
2018-12-21T18:01:48.802Z,11.60
2018-12-21T18:04:26.025Z,11.70
2018-12-21T18:06:54.451Z,11.70
2018-12-21T18:09:23.686Z,11.70
2018-12-21T18:11:57.181Z,11.70
2018-12-21T18:14:22.524Z,11.70
2018-12-21T18:16:51.001Z,11.70
2018-12-21T18:19:19.373Z,11.80
2018-12-21T18:21:52.468Z,11.70
2018-12-21T18:24:22.129Z,11.70
2018-12-21T18:26:50.508Z,11.70
2018-12-21T18:29:18.926Z,11.70
2018-12-21T18:31:55.119Z,11.60
2018-12-21T18:34:29.355Z,11.60
2018-12-21T18:36:57.924Z,11.60
2018-12-21T18:39:26.355Z,11.60
2018-12-21T18:41:54.892Z,11.60
2018-12-21T18:44:24.019Z,11.60
2018-12-21T18:46:52.477Z,11.60
2018-12-21T18:49:20.966Z,11.60
2018-12-21T18:51:49.380Z,11.60
2018-12-21T18:54:17.907Z,11.60
2018-12-21T18:57:05.304Z,11.60
2018-12-21T18:59:34.198Z,11.60
2018-12-21T19:02:02.627Z,11.70
2018-12-21T19:04:32.174Z,11.70
2018-12-21T19:07:00.654Z,11.70
2018-12-21T19:09:29.340Z,11.60
2018-12-21T19:11:57.891Z,11.60
2018-12-21T19:14:26.401Z,11.60
2018-12-21T19:16:54.826Z,11.70
2018-12-21T19:19:23.238Z,11.60
2018-12-21T19:21:51.676Z,11.60
2018-12-21T19:24:20.080Z,11.70
2018-12-21T19:26:55.610Z,11.70
2018-12-21T19:29:19.089Z,11.70
2018-12-21T19:31:47.496Z,11.70
2018-12-21T19:34:15.953Z,11.80
2018-12-21T19:36:44.458Z,11.70
2018-12-21T19:39:13.365Z,11.70
2018-12-21T19:41:42.072Z,11.70
2018-12-21T19:44:10.693Z,11.60
2018-12-21T19:46:39.223Z,11.70
2018-12-21T19:49:08.941Z,11.60
2018-12-21T19:51:38.310Z,11.60
2018-12-21T19:54:07.348Z,11.50
2018-12-21T19:56:47.411Z,11.50
2018-12-21T19:59:15.801Z,11.50
2018-12-21T20:01:44.274Z,11.40
2018-12-21T20:04:12.752Z,11.40
2018-12-21T20:06:41.274Z,11.40
2018-12-21T20:09:09.686Z,11.40
2018-12-21T20:11:38.078Z,11.40
2018-12-21T20:14:06.649Z,11.40
2018-12-21T20:16:35.106Z,11.50
2018-12-21T20:19:03.747Z,11.50
2018-12-21T20:21:32.295Z,11.40
2018-12-21T20:24:00.704Z,11.40
2018-12-21T20:26:29.281Z,11.40
2018-12-21T20:28:57.743Z,11.50
2018-12-21T20:31:26.119Z,11.50
2018-12-21T20:33:54.810Z,11.50
2018-12-21T20:36:23.425Z,11.50
2018-12-21T20:38:51.909Z,11.50
2018-12-21T20:41:20.422Z,11.40
2018-12-21T20:43:49.481Z,11.50
2018-12-21T20:46:17.990Z,11.50
2018-12-21T20:48:46.559Z,11.40
2018-12-21T20:51:15.012Z,11.50
2018-12-21T20:53:43.533Z,11.60
2018-12-21T20:56:12.036Z,11.50
2018-12-21T20:58:44.243Z,11.60
2018-12-21T21:01:12.777Z,11.60
2018-12-21T21:03:41.243Z,11.60
2018-12-21T21:06:09.827Z,11.50
2018-12-21T21:08:39.155Z,11.50
2018-12-21T21:11:07.781Z,11.50
2018-12-21T21:13:36.339Z,11.40
2018-12-21T21:16:04.785Z,11.40
2018-12-21T21:18:33.294Z,11.50
2018-12-21T21:21:02.197Z,11.60
2018-12-21T21:23:30.619Z,11.70
2018-12-21T21:25:59.072Z,11.60
2018-12-21T21:28:28.454Z,11.60
2018-12-21T21:30:56.885Z,11.60
2018-12-21T21:33:25.386Z,11.60
2018-12-21T21:35:53.828Z,11.50
2018-12-21T21:38:22.392Z,11.50
2018-12-21T21:40:51.454Z,11.60
2018-12-21T21:43:20.444Z,11.60
2018-12-21T21:45:48.864Z,11.60
2018-12-21T21:48:18.394Z,11.60
2018-12-21T21:50:47.467Z,11.60
2018-12-21T21:53:15.928Z,11.50
2018-12-21T21:55:44.471Z,11.60
2018-12-21T21:58:13.532Z,11.50
2018-12-21T22:00:41.995Z,11.50
2018-12-21T22:03:10.359Z,11.50
2018-12-21T22:05:38.755Z,11.50
2018-12-21T22:08:07.290Z,11.50
2018-12-21T22:10:35.762Z,11.50
2018-12-21T22:13:04.297Z,11.40
2018-12-21T22:15:32.764Z,11.50
2018-12-21T22:18:01.180Z,11.50
2018-12-21T22:20:30.227Z,11.50
2018-12-21T22:22:58.761Z,11.50
2018-12-21T22:25:27.324Z,11.50
2018-12-21T22:27:56.097Z,11.50
2018-12-21T22:30:25.304Z,11.50
2018-12-21T22:32:53.707Z,11.40
2018-12-21T22:35:22.248Z,11.40
2018-12-21T22:37:51.182Z,11.40
2018-12-21T22:40:19.550Z,11.40
2018-12-21T22:42:48.391Z,11.40
2018-12-21T22:45:16.901Z,11.30
2018-12-21T22:47:45.251Z,11.40
2018-12-21T22:50:14.632Z,11.30
2018-12-21T22:52:43.227Z,11.30
2018-12-21T22:55:11.753Z,11.30
2018-12-21T22:57:40.098Z,11.30
2018-12-21T23:00:16.537Z,11.30
2018-12-21T23:02:44.955Z,11.30
2018-12-21T23:05:13.357Z,11.30
2018-12-21T23:07:41.887Z,11.30
2018-12-21T23:10:10.276Z,11.30
2018-12-21T23:12:39.592Z,11.30
2018-12-21T23:15:08.050Z,11.30
2018-12-21T23:17:36.607Z,11.30
2018-12-21T23:20:05.673Z,11.30
2018-12-21T23:22:34.343Z,11.30
2018-12-21T23:25:02.837Z,11.20
2018-12-21T23:27:31.256Z,11.20
2018-12-21T23:30:01.146Z,11.20
2018-12-21T23:32:29.629Z,11.20
2018-12-21T23:34:57.979Z,11.20
2018-12-21T23:37:26.490Z,11.10
2018-12-21T23:39:54.896Z,11.10
2018-12-21T23:42:23.368Z,11.00
2018-12-21T23:44:51.745Z,11.10
2018-12-21T23:47:20.225Z,11.10
2018-12-21T23:49:48.615Z,11.10
2018-12-21T23:52:17.729Z,11.10
2018-12-21T23:54:46.228Z,11.10
2018-12-21T23:57:14.724Z,11.20
2018-12-21T23:59:43.065Z,11.10
